Time;durP1;ratioP1;P1;durP2;ratioP2;P2;SDS_P1;SDS_P2;PMS_P1;PMS_P2;Temp;Humidity;BMP_temperature;BMP_pressure;BME280_temperature;BME280_humidity;BME280_pressure;Samples;Min_cycle;Max_cycle;Signal;HPM_P1;HPM_P2
2023/01/08 00:01:11;;;;;;;;;;;;;;;1.96;100.00;98470.69;103025;1313;22481;-72
2023/01/08 00:03:47;;;;;;;;;;;;;;;1.98;100.00;98457.55;103028;1294;22505;-72
2023/01/08 00:06:16;;;;;;;;;;;;;;;2.00;100.00;98453.48;102934;1312;124358;-72
2023/01/08 00:08:43;;;;;;;;;;;;;;;2.02;100.00;98447.77;102722;1309;22471;-72
2023/01/08 00:11:11;;;;;;;;;;;;;;;2.04;100.00;98447.45;102961;1294;124467;-72
2023/01/08 00:13:37;;;;;;;;;;;;;;;2.06;100.00;98444.78;103010;1312;22471;-72
2023/01/08 00:16:05;;;;;;;;;;;;;;;2.07;100.00;98441.41;102966;1313;124579;-73
2023/01/08 00:18:32;;;;;;;;;;;;;;;2.08;100.00;98439.73;102748;1312;24488;-72
2023/01/08 00:20:59;;;;;;;;;;;;;;;2.09;100.00;98435.23;103884;1298;24253;-72
2023/01/08 00:23:26;;;;;;;;;;;;;;;2.11;100.00;98433.23;103017;1313;124547;-72
2023/01/08 00:25:53;;;;;;;;;;;;;;;2.12;100.00;98433.78;103107;1313;22565;-72
2023/01/08 00:28:19;;;;;;;;;;;;;;;2.13;100.00;98435.98;103016;1297;124513;-72
2023/01/08 00:30:47;;;;;;;;;;;;;;;2.14;100.00;98427.26;103268;1298;25314;-72
2023/01/08 00:33:14;;;;;;;;;;;;;;;2.15;100.00;98420.33;103134;1312;25876;-72
2023/01/08 00:35:40;;;;;;;;;;;;;;;2.16;100.00;98418.44;103016;1312;125254;-72
2023/01/08 00:38:07;;;;;;;;;;;;;;;2.17;100.00;98422.45;103116;1298;22484;-72
2023/01/08 00:40:34;;;;;;;;;;;;;;;2.17;100.00;98433.48;102995;1313;124546;-72
2023/01/08 00:43:01;;;;;;;;;;;;;;;2.15;100.00;98433.56;103144;1313;25676;-72
2023/01/08 00:45:28;;;;;;;;;;;;;;;2.15;100.00;98426.48;103061;1313;22454;-71
2023/01/08 00:47:55;;;;;;;;;;;;;;;2.12;100.00;98416.76;103006;1313;125597;-72
2023/01/08 00:50:21;;;;;;;;;;;;;;;2.12;100.00;98415.79;103123;1312;22467;-72
2023/01/08 00:52:48;;;;;;;;;;;;;;;2.11;100.00;98420.13;103014;1313;124355;-72
2023/01/08 00:55:15;;;;;;;;;;;;;;;2.12;100.00;98419.55;103244;1310;22858;-72
2023/01/08 00:57:42;;;;;;;;;;;;;;;2.13;100.00;98422.59;103208;1298;22471;-72
2023/01/08 01:00:11;;;;;;;;;;;;;;;2.14;100.00;98420.08;103218;1313;124481;-72
2023/01/08 01:02:39;;;;;;;;;;;;;;;2.15;100.00;98416.94;103156;1313;22494;-72
2023/01/08 01:05:06;;;;;;;;;;;;;;;2.16;100.00;98416.15;102992;1311;124405;-72
2023/01/08 01:07:33;;;;;;;;;;;;;;;2.16;100.00;98411.48;103071;1298;25408;-72
2023/01/08 01:10:00;;;;;;;;;;;;;;;2.15;100.00;98409.13;103212;1309;22475;-72
2023/01/08 01:12:27;;;;;;;;;;;;;;;2.15;100.00;98411.77;102966;1312;124370;-72
2023/01/08 01:14:53;;;;;;;;;;;;;;;2.14;100.00;98411.55;103081;1312;22449;-72
2023/01/08 01:17:20;;;;;;;;;;;;;;;2.13;100.00;98415.19;103015;1313;125176;-72
2023/01/08 01:19:47;;;;;;;;;;;;;;;2.14;100.00;98409.94;103099;1313;22461;-72
2023/01/08 01:22:14;;;;;;;;;;;;;;;2.13;100.00;98407.23;103006;1311;124493;-72
2023/01/08 01:24:40;;;;;;;;;;;;;;;2.12;100.00;98405.38;103465;1298;24198;-72
2023/01/08 01:27:08;;;;;;;;;;;;;;;2.10;100.00;98404.70;102880;1313;222166;-72
2023/01/08 01:29:34;;;;;;;;;;;;;;;2.07;100.00;98401.95;103014;1313;124565;-72
2023/01/08 01:32:01;;;;;;;;;;;;;;;2.03;100.00;98404.02;103074;1310;24307;-72
2023/01/08 01:34:28;;;;;;;;;;;;;;;2.00;100.00;98401.35;102989;1313;124503;-72
2023/01/08 01:36:54;;;;;;;;;;;;;;;1.97;100.00;98401.42;103090;1311;22918;-72
2023/01/08 01:39:22;;;;;;;;;;;;;;;1.93;99.99;98395.29;103049;1291;22585;-72
2023/01/08 01:41:48;;;;;;;;;;;;;;;1.89;99.95;98390.36;102994;1301;124144;-72
2023/01/08 01:44:34;;;;;;;;;;;;;;;1.85;99.84;98391.44;102953;1298;22467;-72
2023/01/08 01:47:04;;;;;;;;;;;;;;;1.79;99.46;98381.45;103005;1298;124413;-72
2023/01/08 01:49:31;;;;;;;;;;;;;;;1.73;99.35;98377.77;103098;1298;22454;-72
2023/01/08 01:52:01;;;;;;;;;;;;;;;1.68;99.28;98373.20;103094;1298;24204;-72
2023/01/08 01:54:30;;;;;;;;;;;;;;;1.63;99.42;98373.77;103328;1288;124032;-72
2023/01/08 01:56:58;;;;;;;;;;;;;;;1.58;99.37;98368.89;103289;1291;24386;-72
2023/01/08 01:59:25;;;;;;;;;;;;;;;1.53;99.27;98367.65;102983;1291;125071;-72
2023/01/08 02:01:52;;;;;;;;;;;;;;;1.48;99.20;98359.20;103109;1296;22460;-72
2023/01/08 02:04:19;;;;;;;;;;;;;;;1.43;99.16;98352.48;102997;1298;124545;-72
2023/01/08 02:07:25;;;;;;;;;;;;;;;1.39;99.18;98349.93;103101;1298;22497;-72
2023/01/08 02:09:57;;;;;;;;;;;;;;;1.34;99.37;98355.02;102280;1318;22745;-73
2023/01/08 02:12:29;;;;;;;;;;;;;;;1.29;99.40;98352.20;102397;1312;125411;-72
2023/01/08 02:15:07;;;;;;;;;;;;;;;1.25;99.37;98347.62;102271;1319;22533;-72
2023/01/08 02:17:53;;;;;;;;;;;;;;;1.21;99.25;98348.65;102200;1320;124256;-72
2023/01/08 02:20:40;;;;;;;;;;;;;;;1.17;99.39;98343.48;102192;1321;22472;-72
2023/01/08 02:23:09;;;;;;;;;;;;;;;1.12;99.22;98342.27;102085;1307;125831;-72
2023/01/08 02:25:36;;;;;;;;;;;;;;;1.07;99.16;98337.67;102278;1320;22498;-72
2023/01/08 02:28:10;;;;;;;;;;;;;;;1.03;99.31;98338.86;102285;1319;22902;-72
2023/01/08 02:30:37;;;;;;;;;;;;;;;1.00;99.23;98336.76;102276;1319;22924;-72
2023/01/08 02:33:04;;;;;;;;;;;;;;;0.97;99.45;98335.17;102268;1322;22486;-72
2023/01/08 02:35:36;;;;;;;;;;;;;;;0.95;99.61;98331.42;102271;1319;124307;-72
2023/01/08 02:38:04;;;;;;;;;;;;;;;0.93;99.61;98342.56;102111;1321;25364;-72
2023/01/08 02:40:36;;;;;;;;;;;;;;;0.91;99.37;98336.80;102283;1309;125514;-72
2023/01/08 02:43:06;;;;;;;;;;;;;;;0.88;99.38;98334.45;103117;1305;22447;-72
2023/01/08 02:45:54;;;;;;;;;;;;;;;0.87;99.36;98328.04;103068;1297;23750;-72
2023/01/08 02:48:35;;;;;;;;;;;;;;;0.83;99.14;98328.15;102998;1313;124894;-72
2023/01/08 02:51:07;;;;;;;;;;;;;;;0.78;99.06;98332.29;103073;1313;24265;-74
2023/01/08 02:53:40;;;;;;;;;;;;;;;0.73;98.86;98338.79;103004;1291;124192;-72
2023/01/08 02:56:33;;;;;;;;;;;;;;;0.69;99.25;98337.24;103118;1313;22443;-72
2023/01/08 02:59:01;;;;;;;;;;;;;;;0.68;99.42;98335.77;102873;1299;124271;-72
2023/01/08 03:01:28;;;;;;;;;;;;;;;0.65;99.20;98331.52;103010;1288;25281;-72
2023/01/08 03:03:57;;;;;;;;;;;;;;;0.61;99.14;98330.94;103006;1291;23863;-72
2023/01/08 03:06:25;;;;;;;;;;;;;;;0.55;98.78;98331.27;102928;1312;124321;-72
2023/01/08 03:08:52;;;;;;;;;;;;;;;0.51;98.85;98332.32;103018;1312;25313;-72
2023/01/08 03:11:21;;;;;;;;;;;;;;;0.48;99.14;98338.38;103076;1313;124144;-73
2023/01/08 03:13:56;;;;;;;;;;;;;;;0.45;99.13;98336.90;103025;1310;22498;-73
2023/01/08 03:16:35;;;;;;;;;;;;;;;0.43;99.47;98342.54;102906;1291;125013;-73
2023/01/08 03:19:07;;;;;;;;;;;;;;;0.40;99.23;98339.45;102982;1310;22499;-73
2023/01/08 03:21:36;;;;;;;;;;;;;;;0.37;99.35;98332.56;102990;1310;25187;-73
2023/01/08 03:24:03;;;;;;;;;;;;;;;0.35;99.35;98325.83;102927;1310;126024;-73
2023/01/08 03:26:31;;;;;;;;;;;;;;;0.32;99.15;98321.02;102975;1307;22581;-73
2023/01/08 03:29:00;;;;;;;;;;;;;;;0.27;98.87;98318.16;102922;1310;124211;-73
2023/01/08 03:31:28;;;;;;;;;;;;;;;0.24;99.27;98322.45;102985;1298;22547;-73
2023/01/08 03:33:55;;;;;;;;;;;;;;;0.22;99.35;98322.37;103056;1295;25353;-73
2023/01/08 03:36:24;;;;;;;;;;;;;;;0.20;99.66;98314.88;102986;1310;24252;-73
2023/01/08 03:38:55;;;;;;;;;;;;;;;0.19;99.82;98310.54;102961;1310;24286;-73
2023/01/08 03:41:23;;;;;;;;;;;;;;;0.19;99.94;98310.91;102971;1291;25231;-73
2023/01/08 03:43:50;;;;;;;;;;;;;;;0.21;100.00;98308.62;102932;1299;24386;-73
2023/01/08 03:46:26;;;;;;;;;;;;;;;0.22;100.00;98306.33;102926;1288;22447;-73
2023/01/08 03:48:54;;;;;;;;;;;;;;;0.22;100.00;98307.53;102963;1294;24015;-73
2023/01/08 03:51:21;;;;;;;;;;;;;;;0.21;100.00;98300.67;103010;1301;22589;-73
2023/01/08 03:53:49;;;;;;;;;;;;;;;0.21;100.00;98297.17;102967;1298;25344;-73
2023/01/08 03:56:16;;;;;;;;;;;;;;;0.20;100.00;98295.45;102978;1310;22572;-73
2023/01/08 03:58:43;;;;;;;;;;;;;;;0.21;100.00;98292.35;103004;1295;22510;-73
2023/01/08 04:01:09;;;;;;;;;;;;;;;0.20;100.00;98284.81;102975;1288;25430;-73
2023/01/08 04:03:36;;;;;;;;;;;;;;;0.20;100.00;98284.93;102998;1304;22471;-74
2023/01/08 04:06:03;;;;;;;;;;;;;;;0.20;100.00;98280.82;102985;1311;24260;-73
2023/01/08 04:08:30;;;;;;;;;;;;;;;0.19;100.00;98278.05;102974;1288;22555;-74
2023/01/08 04:10:57;;;;;;;;;;;;;;;0.19;100.00;98277.88;102973;1288;23235;-74
2023/01/08 04:13:23;;;;;;;;;;;;;;;0.19;100.00;98274.37;102958;1312;24354;-74
2023/01/08 04:15:50;;;;;;;;;;;;;;;0.18;100.00;98278.27;102957;1286;25345;-74
2023/01/08 04:18:17;;;;;;;;;;;;;;;0.18;100.00;98273.74;102918;1304;22447;-74
2023/01/08 04:20:45;;;;;;;;;;;;;;;0.17;100.00;98276.69;102941;1312;25601;-74
2023/01/08 04:23:12;;;;;;;;;;;;;;;0.16;100.00;98272.67;102977;1313;22545;-74
2023/01/08 04:25:39;;;;;;;;;;;;;;;0.15;100.00;98277.94;102894;1313;22577;-74
2023/01/08 04:28:07;;;;;;;;;;;;;;;0.15;100.00;98276.91;102816;1294;23935;-74
2023/01/08 04:30:34;;;;;;;;;;;;;;;0.15;100.00;98281.39;102794;1300;25289;-74
2023/01/08 04:33:01;;;;;;;;;;;;;;;0.13;100.00;98282.11;102788;1314;25412;-74
2023/01/08 04:35:28;;;;;;;;;;;;;;;0.12;100.00;98279.75;102797;1313;22481;-74
2023/01/08 04:37:54;;;;;;;;;;;;;;;0.12;100.00;98279.11;102785;1309;23885;-74
2023/01/08 04:40:21;;;;;;;;;;;;;;;0.10;100.00;98279.84;102776;1314;26469;-74
2023/01/08 04:42:48;;;;;;;;;;;;;;;0.09;100.00;98277.61;102762;1314;24452;-74
2023/01/08 04:45:15;;;;;;;;;;;;;;;0.08;100.00;98279.55;102754;1290;22462;-74
2023/01/08 04:47:42;;;;;;;;;;;;;;;0.07;100.00;98277.48;102788;1294;22460;-74
2023/01/08 04:50:09;;;;;;;;;;;;;;;0.06;100.00;98272.11;102818;1311;22481;-74
2023/01/08 04:52:36;;;;;;;;;;;;;;;0.03;100.00;98272.48;102780;1297;25339;-74
2023/01/08 04:55:03;;;;;;;;;;;;;;;0.01;100.00;98274.88;102755;1299;22458;-74
2023/01/08 04:57:29;;;;;;;;;;;;;;;-0.02;100.00;98271.48;102749;1307;22919;-74
2023/01/08 04:59:56;;;;;;;;;;;;;;;-0.05;100.00;98270.91;102781;1309;25374;-74
2023/01/08 05:02:23;;;;;;;;;;;;;;;-0.07;100.00;98273.67;102756;1314;22465;-74
2023/01/08 05:04:49;;;;;;;;;;;;;;;-0.09;100.00;98273.94;102797;1293;22437;-74
2023/01/08 05:07:16;;;;;;;;;;;;;;;-0.12;100.00;98277.44;102987;1312;23263;-74
2023/01/08 05:09:43;;;;;;;;;;;;;;;-0.18;99.87;98275.81;102952;1311;22867;-74
2023/01/08 05:12:10;;;;;;;;;;;;;;;-0.28;98.93;98276.27;102962;1312;22502;-73
2023/01/08 05:14:36;;;;;;;;;;;;;;;-0.38;98.67;98277.08;102961;1313;22464;-73
2023/01/08 05:17:03;;;;;;;;;;;;;;;-0.44;98.74;98273.76;102964;1292;23846;-73
2023/01/08 05:19:30;;;;;;;;;;;;;;;-0.49;99.45;98270.17;102963;1311;22542;-73
2023/01/08 05:21:57;;;;;;;;;;;;;;;-0.52;99.20;98268.33;102939;1304;23439;-73
2023/01/08 05:24:23;;;;;;;;;;;;;;;-0.55;99.53;98268.71;102971;1298;26573;-72
2023/01/08 05:26:50;;;;;;;;;;;;;;;-0.57;99.74;98267.40;102834;1298;25309;-72
2023/01/08 05:29:17;;;;;;;;;;;;;;;-0.58;99.75;98266.23;102738;1312;22924;-72
2023/01/08 05:31:44;;;;;;;;;;;;;;;-0.60;99.89;98258.80;102778;1313;24253;-72
2023/01/08 05:34:11;;;;;;;;;;;;;;;-0.63;99.42;98251.66;102982;1297;25347;-72
2023/01/08 05:36:37;;;;;;;;;;;;;;;-0.64;99.83;98253.56;102871;1297;22606;-72
2023/01/08 05:39:04;;;;;;;;;;;;;;;-0.63;100.00;98254.44;102916;1313;22579;-72
2023/01/08 05:41:31;;;;;;;;;;;;;;;-0.60;100.00;98249.91;102927;1313;22450;-72
2023/01/08 05:43:59;;;;;;;;;;;;;;;-0.59;100.00;98240.76;102871;1307;22465;-72
2023/01/08 05:46:26;;;;;;;;;;;;;;;-0.56;100.00;98237.80;102893;1305;22454;-72
2023/01/08 05:48:52;;;;;;;;;;;;;;;-0.53;100.00;98231.96;102929;1313;22456;-74
2023/01/08 05:51:19;;;;;;;;;;;;;;;-0.49;100.00;98231.16;102958;1298;25241;-72
2023/01/08 05:53:46;;;;;;;;;;;;;;;-0.48;100.00;98224.00;102970;1313;23205;-72
2023/01/08 05:56:13;;;;;;;;;;;;;;;-0.44;100.00;98224.54;102965;1313;22458;-72
2023/01/08 05:58:39;;;;;;;;;;;;;;;-0.43;100.00;98225.75;102949;1313;22790;-72
2023/01/08 06:01:09;;;;;;;;;;;;;;;-0.41;100.00;98230.11;102983;1312;22610;-72
2023/01/08 06:03:36;;;;;;;;;;;;;;;-0.39;100.00;98228.36;103022;1310;25437;-72
2023/01/08 06:06:04;;;;;;;;;;;;;;;-0.38;100.00;98222.02;102954;1313;24415;-72
2023/01/08 06:08:31;;;;;;;;;;;;;;;-0.38;100.00;98218.90;102974;1313;23069;-73
2023/01/08 06:11:06;;;;;;;;;;;;;;;-0.37;100.00;98219.59;102978;1313;22486;-72
2023/01/08 06:13:34;;;;;;;;;;;;;;;-0.37;100.00;98234.54;102984;1291;25406;-73
2023/01/08 06:16:01;;;;;;;;;;;;;;;-0.37;100.00;98237.59;102976;1310;22465;-73
2023/01/08 06:18:28;;;;;;;;;;;;;;;-0.37;100.00;98232.29;102945;1301;26008;-73
2023/01/08 06:20:55;;;;;;;;;;;;;;;-0.40;100.00;98236.10;102975;1311;22867;-73
2023/01/08 06:23:22;;;;;;;;;;;;;;;-0.45;99.98;98238.09;102992;1304;23846;-73
2023/01/08 06:25:53;;;;;;;;;;;;;;;-0.50;100.00;98241.83;103148;1310;22455;-73
2023/01/08 06:28:20;;;;;;;;;;;;;;;-0.55;100.00;98235.39;102914;1307;22530;-73
2023/01/08 06:30:47;;;;;;;;;;;;;;;-0.55;100.00;98227.60;102884;1297;24381;-73
2023/01/08 06:33:14;;;;;;;;;;;;;;;-0.57;100.00;98223.63;102877;1312;22537;-73
2023/01/08 06:35:41;;;;;;;;;;;;;;;-0.56;100.00;98229.23;102893;1313;23530;-73
2023/01/08 06:38:08;;;;;;;;;;;;;;;-0.56;100.00;98219.78;102863;1312;22461;-73
2023/01/08 06:40:35;;;;;;;;;;;;;;;-0.54;100.00;98217.13;102883;1312;22467;-73
2023/01/08 06:43:04;;;;;;;;;;;;;;;-0.53;100.00;98220.55;102872;1305;25237;-73
2023/01/08 06:45:31;;;;;;;;;;;;;;;-0.53;100.00;98221.39;102855;1291;24116;-73
2023/01/08 06:48:05;;;;;;;;;;;;;;;-0.52;100.00;98223.09;102861;1300;22852;-73
2023/01/08 06:50:32;;;;;;;;;;;;;;;-0.50;100.00;98221.73;102859;1313;22455;-73
2023/01/08 06:52:59;;;;;;;;;;;;;;;-0.47;100.00;98223.26;102844;1312;22449;-73
2023/01/08 06:55:26;;;;;;;;;;;;;;;-0.44;100.00;98221.26;102869;1312;23897;-73
2023/01/08 06:57:57;;;;;;;;;;;;;;;-0.41;100.00;98224.83;102858;1313;24398;-72
2023/01/08 07:00:25;;;;;;;;;;;;;;;-0.40;100.00;98226.06;102882;1313;22457;-72
2023/01/08 07:02:52;;;;;;;;;;;;;;;-0.36;100.00;98228.84;103000;1295;22472;-73
2023/01/08 07:05:19;;;;;;;;;;;;;;;-0.32;100.00;98223.30;102898;1310;22902;-72
2023/01/08 07:07:45;;;;;;;;;;;;;;;-0.28;100.00;98221.71;102904;1304;22460;-72
2023/01/08 07:10:12;;;;;;;;;;;;;;;-0.24;100.00;98228.13;103013;1298;25189;-72
2023/01/08 07:12:39;;;;;;;;;;;;;;;-0.20;100.00;98225.38;102931;1313;24024;-72
2023/01/08 07:15:06;;;;;;;;;;;;;;;-0.15;100.00;98222.90;102935;1312;23195;-72
2023/01/08 07:17:33;;;;;;;;;;;;;;;-0.11;100.00;98224.54;102913;1313;22548;-72
2023/01/08 07:20:00;;;;;;;;;;;;;;;-0.07;100.00;98227.90;102928;1313;22551;-72
2023/01/08 07:22:27;;;;;;;;;;;;;;;-0.04;100.00;98231.31;103027;1313;22536;-72
2023/01/08 07:24:54;;;;;;;;;;;;;;;-0.03;100.00;98228.36;103020;1313;24273;-72
2023/01/08 07:27:21;;;;;;;;;;;;;;;-0.01;100.00;98222.80;103629;1289;22532;-72
2023/01/08 07:29:48;;;;;;;;;;;;;;;0.01;100.00;98213.73;103408;1283;22447;-71
2023/01/08 07:32:14;;;;;;;;;;;;;;;0.00;100.00;98206.92;103524;1303;22572;-72
2023/01/08 07:34:41;;;;;;;;;;;;;;;0.04;100.00;98206.80;102990;1303;22586;-71
2023/01/08 07:37:08;;;;;;;;;;;;;;;0.09;100.00;98203.71;103038;1312;22461;-72
2023/01/08 07:39:35;;;;;;;;;;;;;;;0.15;100.00;98197.48;103040;1296;23927;-71
2023/01/08 07:42:01;;;;;;;;;;;;;;;0.22;100.00;98191.19;103032;1313;25308;-71
2023/01/08 07:44:28;;;;;;;;;;;;;;;0.28;100.00;98181.30;103078;1310;22664;-72
2023/01/08 07:46:55;;;;;;;;;;;;;;;0.34;100.00;98184.55;103294;1289;22454;-72
2023/01/08 07:49:21;;;;;;;;;;;;;;;0.40;100.00;98186.05;103055;1298;25315;-72
2023/01/08 07:51:48;;;;;;;;;;;;;;;0.46;100.00;98186.15;103050;1311;22456;-71
2023/01/08 07:54:15;;;;;;;;;;;;;;;0.52;100.00;98186.48;103070;1302;25419;-71
2023/01/08 07:56:42;;;;;;;;;;;;;;;0.57;100.00;98187.89;103032;1312;22479;-71
2023/01/08 07:59:09;;;;;;;;;;;;;;;0.63;100.00;98176.94;103080;1307;25833;-71
2023/01/08 08:01:35;;;;;;;;;;;;;;;0.68;100.00;98178.05;102866;1313;22507;-71
2023/01/08 08:04:02;;;;;;;;;;;;;;;0.74;100.00;98172.92;103080;1309;22448;-71
2023/01/08 08:06:29;;;;;;;;;;;;;;;0.79;100.00;98165.42;103094;1313;23237;-71
2023/01/08 08:08:56;;;;;;;;;;;;;;;0.85;100.00;98163.88;103036;1313;22476;-71
2023/01/08 08:11:23;;;;;;;;;;;;;;;0.89;100.00;98160.91;102995;1312;23023;-72
2023/01/08 08:13:50;;;;;;;;;;;;;;;0.95;100.00;98160.23;103004;1313;24275;-72
2023/01/08 08:16:16;;;;;;;;;;;;;;;1.02;100.00;98161.24;103012;1313;24293;-72
2023/01/08 08:18:43;;;;;;;;;;;;;;;1.07;100.00;98164.24;102944;1294;22517;-71
2023/01/08 08:21:10;;;;;;;;;;;;;;;1.13;100.00;98157.98;103050;1313;25336;-72
2023/01/08 08:23:36;;;;;;;;;;;;;;;1.20;100.00;98158.55;103139;1305;22501;-72
2023/01/08 08:26:04;;;;;;;;;;;;;;;1.27;100.00;98155.34;103067;1313;22463;-72
2023/01/08 08:28:30;;;;;;;;;;;;;;;1.34;100.00;98151.77;103476;1306;25414;-72
2023/01/08 08:30:57;;;;;;;;;;;;;;;1.41;100.00;98141.77;103157;1298;22476;-72
2023/01/08 08:33:24;;;;;;;;;;;;;;;1.49;100.00;98132.77;103103;1291;25224;-72
2023/01/08 08:35:51;;;;;;;;;;;;;;;1.56;100.00;98123.67;103086;1312;22453;-72
2023/01/08 08:38:18;;;;;;;;;;;;;;;1.64;100.00;98118.86;103153;1289;22471;-72
2023/01/08 08:40:44;;;;;;;;;;;;;;;1.72;100.00;98119.23;103085;1313;22458;-72
2023/01/08 08:43:11;;;;;;;;;;;;;;;1.78;100.00;98114.27;103108;1303;22576;-72
2023/01/08 08:45:38;;;;;;;;;;;;;;;1.84;100.00;98112.90;103786;1298;24007;-73
2023/01/08 08:48:06;;;;;;;;;;;;;;;1.91;100.00;98109.88;103420;1287;22442;-72
2023/01/08 08:50:33;;;;;;;;;;;;;;;1.98;100.00;98113.98;103036;1311;24279;-73
2023/01/08 08:53:01;;;;;;;;;;;;;;;2.05;100.00;98116.86;103112;1304;22486;-73
2023/01/08 08:55:28;;;;;;;;;;;;;;;2.12;100.00;98120.74;103397;1288;22704;-73
2023/01/08 08:58:00;;;;;;;;;;;;;;;2.20;99.99;98115.73;103126;1294;22469;-73
2023/01/08 09:00:27;;;;;;;;;;;;;;;2.27;99.90;98113.08;103186;1309;22463;-72
2023/01/08 09:02:54;;;;;;;;;;;;;;;2.34;99.84;98113.41;103124;1313;22461;-73
2023/01/08 09:05:21;;;;;;;;;;;;;;;2.42;99.72;98112.30;102998;1304;22463;-73
2023/01/08 09:07:47;;;;;;;;;;;;;;;2.49;99.62;98109.45;103014;1300;25332;-73
2023/01/08 09:10:14;;;;;;;;;;;;;;;2.57;99.58;98105.01;102956;1299;22570;-72
2023/01/08 09:12:41;;;;;;;;;;;;;;;2.65;99.30;98106.09;102936;1313;22699;-73
2023/01/08 09:15:08;;;;;;;;;;;;;;;2.73;98.92;98108.19;102927;1313;23868;-73
2023/01/08 09:17:35;;;;;;;;;;;;;;;2.79;98.85;98107.34;103082;1304;22456;-73
2023/01/08 09:20:03;;;;;;;;;;;;;;;2.85;98.61;98102.05;102948;1297;27761;-73
2023/01/08 09:22:30;;;;;;;;;;;;;;;2.92;98.64;98097.39;102936;1313;22549;-76
2023/01/08 09:24:57;;;;;;;;;;;;;;;2.98;98.38;98093.05;103234;1304;22466;-73
2023/01/08 09:27:23;;;;;;;;;;;;;;;3.01;97.83;98094.66;103089;1287;22470;-73
2023/01/08 09:29:50;;;;;;;;;;;;;;;3.07;98.07;98091.41;104345;1289;22523;-74
2023/01/08 09:32:17;;;;;;;;;;;;;;;3.14;98.00;98091.77;103373;1298;22456;-73
2023/01/08 09:34:44;;;;;;;;;;;;;;;3.20;97.70;98084.66;103220;1288;22463;-73
2023/01/08 09:37:10;;;;;;;;;;;;;;;3.27;97.26;98084.86;103403;1291;23376;-73
2023/01/08 09:39:38;;;;;;;;;;;;;;;3.31;97.36;98080.48;103827;1298;22695;-73
2023/01/08 09:42:06;;;;;;;;;;;;;;;3.36;97.47;98074.97;103173;1290;25355;-74
2023/01/08 09:44:36;;;;;;;;;;;;;;;3.42;97.46;98068.75;103265;1299;24478;-73
2023/01/08 09:47:04;;;;;;;;;;;;;;;3.50;97.33;98065.09;103201;1288;22455;-73
2023/01/08 09:49:42;;;;;;;;;;;;;;;3.54;97.00;98059.54;103197;1297;24294;-74
2023/01/08 09:52:11;;;;;;;;;;;;;;;3.59;96.58;98058.86;103919;1298;22601;-74
2023/01/08 09:54:39;;;;;;;;;;;;;;;3.64;96.60;98054.35;103936;1292;24308;-74
2023/01/08 09:57:11;;;;;;;;;;;;;;;3.69;96.42;98053.84;103788;1284;23864;-76
2023/01/08 09:59:38;;;;;;;;;;;;;;;3.72;96.24;98040.91;103934;1303;25922;-74
2023/01/08 10:02:10;;;;;;;;;;;;;;;3.76;96.37;98036.38;104939;1283;22483;-75
2023/01/08 10:04:37;;;;;;;;;;;;;;;3.80;96.14;98033.59;104903;1297;124813;-75
2023/01/08 10:07:23;;;;;;;;;;;;;;;3.83;95.65;98031.46;104552;1297;22509;-75
2023/01/08 10:09:50;;;;;;;;;;;;;;;3.86;95.32;98027.23;104477;1287;126020;-75
2023/01/08 10:12:28;;;;;;;;;;;;;;;3.90;95.36;98026.17;103945;1291;22949;-75
2023/01/08 10:14:58;;;;;;;;;;;;;;;3.92;94.67;98020.11;104343;1291;25093;-75
2023/01/08 10:17:28;;;;;;;;;;;;;;;3.92;94.51;98013.61;103539;1307;124533;-75
2023/01/08 10:19:55;;;;;;;;;;;;;;;3.94;94.36;98010.38;103428;1297;24243;-74
2023/01/08 10:22:23;;;;;;;;;;;;;;;3.93;94.05;98003.95;103182;1313;124245;-75
2023/01/08 10:24:51;;;;;;;;;;;;;;;3.93;94.10;97996.58;103132;1312;22865;-74
2023/01/08 10:27:21;;;;;;;;;;;;;;;3.94;93.93;97990.77;103005;1303;125133;-75
2023/01/08 10:29:51;;;;;;;;;;;;;;;3.91;93.77;97981.30;103672;1292;23014;-74
2023/01/08 10:32:27;;;;;;;;;;;;;;;3.88;93.47;97975.59;103742;1291;24756;-75
2023/01/08 10:34:57;;;;;;;;;;;;;;;3.86;93.66;97973.20;104456;1290;125090;-76
2023/01/08 10:37:45;;;;;;;;;;;;;;;3.88;93.83;97968.34;103429;1291;23444;-75
2023/01/08 10:40:31;;;;;;;;;;;;;;;3.88;93.81;97961.38;104093;1288;124401;-75
2023/01/08 10:43:07;;;;;;;;;;;;;;;3.89;93.55;97958.80;104552;1298;22972;-74
2023/01/08 10:45:34;;;;;;;;;;;;;;;3.92;93.77;97961.52;104328;1297;125437;-75
2023/01/08 10:48:04;;;;;;;;;;;;;;;3.96;93.65;97959.23;104140;1300;22448;-74
2023/01/08 10:50:32;;;;;;;;;;;;;;;3.98;93.52;97951.75;104371;1290;22453;-75
2023/01/08 10:53:20;;;;;;;;;;;;;;;4.02;93.62;97944.27;103550;1291;125063;-74
2023/01/08 10:55:56;;;;;;;;;;;;;;;4.05;93.59;97944.09;103610;1298;22615;-74
2023/01/08 10:58:22;;;;;;;;;;;;;;;4.07;93.49;97937.54;102995;1304;124242;-74
2023/01/08 11:00:49;;;;;;;;;;;;;;;4.10;93.51;97938.96;103143;1292;23267;-73
2023/01/08 11:03:20;;;;;;;;;;;;;;;4.10;93.22;97938.67;103139;1298;124363;-74
2023/01/08 11:05:47;;;;;;;;;;;;;;;4.08;93.01;97940.02;103862;1287;25340;-74
2023/01/08 11:08:18;;;;;;;;;;;;;;;4.06;92.95;97935.59;103162;1284;22464;-73
2023/01/08 11:10:55;;;;;;;;;;;;;;;4.03;92.70;97932.83;103613;1302;125384;-73
2023/01/08 11:13:22;;;;;;;;;;;;;;;4.02;92.98;97933.24;103220;1300;23284;-73
2023/01/08 11:16:15;;;;;;;;;;;;;;;4.15;94.39;97928.40;103234;1307;124409;-74
2023/01/08 11:18:49;;;;;;;;;;;;;;;4.26;93.48;97921.08;102968;1303;24057;-73
2023/01/08 11:21:27;;;;;;;;;;;;;;;4.31;93.21;97918.05;103132;1304;125806;-73
2023/01/08 11:24:12;;;;;;;;;;;;;;;4.37;92.87;97913.90;103114;1301;22480;-73
2023/01/08 11:26:41;;;;;;;;;;;;;;;4.42;92.63;97917.77;102932;1313;25352;-73
2023/01/08 11:29:16;;;;;;;;;;;;;;;4.46;92.83;97920.58;103202;1311;124299;-73
2023/01/08 11:31:48;;;;;;;;;;;;;;;4.52;92.73;97918.39;102936;1312;22454;-73
2023/01/08 11:34:17;;;;;;;;;;;;;;;4.58;92.24;97913.09;102825;1291;124244;-73
2023/01/08 11:36:49;;;;;;;;;;;;;;;4.61;91.79;97911.08;102979;1291;25467;-73
2023/01/08 11:39:16;;;;;;;;;;;;;;;4.64;91.62;97910.64;102857;1303;124658;-73
2023/01/08 11:41:52;;;;;;;;;;;;;;;4.69;91.76;97906.37;102989;1306;22460;-74
2023/01/08 11:44:30;;;;;;;;;;;;;;;4.74;91.70;97904.27;102947;1297;25300;-73
2023/01/08 11:47:20;;;;;;;;;;;;;;;4.80;91.67;97898.33;102861;1312;124327;-73
2023/01/08 11:50:07;;;;;;;;;;;;;;;4.85;91.57;97897.50;102736;1308;22469;-72
2023/01/08 11:52:44;;;;;;;;;;;;;;;4.91;91.55;97898.14;102739;1313;124385;-73
2023/01/08 11:55:15;;;;;;;;;;;;;;;4.99;91.58;97893.72;103073;1312;22474;-73
2023/01/08 11:57:44;;;;;;;;;;;;;;;5.05;91.12;97891.41;102834;1313;124785;-73
2023/01/08 12:00:29;;;;;;;;;;;;;;;5.11;91.00;97889.73;102971;1313;22477;-72
2023/01/08 12:03:10;;;;;;;;;;;;;;;5.18;90.84;97886.34;103436;1292;22477;-73
2023/01/08 12:05:37;;;;;;;;;;;;;;;5.25;90.75;97881.48;103202;1297;22501;-73
2023/01/08 12:08:11;;;;;;;;;;;;;;;5.32;90.74;97877.59;103237;1298;25303;-73
2023/01/08 12:10:44;;;;;;;;;;;;;;;5.38;90.51;97878.62;102873;1312;125839;-73
2023/01/08 12:13:11;;;;;;;;;;;;;;;5.44;90.18;97870.09;103125;1294;22486;-72
2023/01/08 12:15:52;;;;;;;;;;;;;;;5.48;89.98;97865.42;102900;1312;124529;-72
2023/01/08 12:18:31;;;;;;;;;;;;;;;5.55;89.72;97863.00;102922;1312;22449;-72
2023/01/08 12:21:00;;;;;;;;;;;;;;;5.60;89.34;97859.63;102990;1297;26470;-72
2023/01/08 12:23:50;;;;;;;;;;;;;;;5.64;89.09;97854.46;102950;1298;124026;-73
2023/01/08 12:26:19;;;;;;;;;;;;;;;5.69;89.20;97847.88;103020;1311;22466;-72
2023/01/08 12:28:51;;;;;;;;;;;;;;;5.73;89.14;97846.48;103305;1297;124287;-73
2023/01/08 12:31:37;;;;;;;;;;;;;;;5.78;89.19;97844.17;103069;1313;22464;-72
2023/01/08 12:34:17;;;;;;;;;;;;;;;5.81;88.81;97837.98;103052;1297;124305;-73
2023/01/08 12:36:50;;;;;;;;;;;;;;;5.83;88.26;97840.65;102982;1306;22903;-72
2023/01/08 12:39:22;;;;;;;;;;;;;;;5.84;88.22;97834.94;103050;1313;124426;-73
2023/01/08 12:41:51;;;;;;;;;;;;;;;5.85;88.10;97833.45;103081;1313;25216;-72
2023/01/08 12:44:22;;;;;;;;;;;;;;;5.83;88.09;97831.13;103014;1313;22453;-72
2023/01/08 12:46:49;;;;;;;;;;;;;;;5.81;88.11;97823.63;102933;1313;124201;-72
2023/01/08 12:49:20;;;;;;;;;;;;;;;5.80;87.97;97820.83;103042;1312;25462;-72